Time;durP1;ratioP1;P1;durP2;ratioP2;P2;SDS_P1;SDS_P2;PMS_P1;PMS_P2;Temp;Humidity;BMP_temperature;BMP_pressure;BME280_temperature;BME280_humidity;BME280_pressure;Samples;Min_cycle;Max_cycle;Signal;HPM_P1;HPM_P2
2022/05/10 00:01:32;;;;;;;4.55;3.00;;;;;;;13.85;83.47;100617.94;6230415;28;20295;-73
2022/05/10 00:04:33;;;;;;;5.68;3.50;;;;;;;13.85;83.26;100615.31;6246410;28;20053;-73
2022/05/10 00:07:36;;;;;;;5.60;3.03;;;;;;;13.90;82.56;100606.19;6248247;28;20052;-73
2022/05/10 00:10:38;;;;;;;8.05;3.05;;;;;;;13.90;81.99;100611.44;6247792;28;20049;-73
2022/05/10 00:13:39;;;;;;;4.97;3.13;;;;;;;13.87;81.93;100602.94;6246493;28;20037;-73
2022/05/10 00:16:43;;;;;;;6.47;3.38;;;;;;;13.82;82.50;100605.03;6245948;28;20049;-74
2022/05/10 00:19:44;;;;;;;7.72;2.92;;;;;;;13.83;82.85;100607.53;6246244;28;20045;-73
2022/05/10 00:22:45;;;;;;;5.40;3.20;;;;;;;13.73;82.74;100608.25;6229846;28;20456;-74
2022/05/10 00:25:46;;;;;;;5.75;3.42;;;;;;;13.71;82.56;100618.81;6247415;28;20049;-73
2022/05/10 00:28:46;;;;;;;5.05;3.03;;;;;;;13.61;83.26;100612.50;6247264;28;20497;-73
2022/05/10 00:31:47;;;;;;;4.78;3.08;;;;;;;13.66;84.38;100615.66;6229719;28;20045;-74
2022/05/10 00:34:48;;;;;;;9.25;3.10;;;;;;;13.58;83.18;100608.28;6262538;28;20056;-73
2022/05/10 00:37:51;;;;;;;4.75;3.08;;;;;;;13.46;83.57;100604.69;6246028;28;20045;-73
2022/05/10 00:40:52;;;;;;;4.63;3.50;;;;;;;13.50;83.35;100603.53;6245833;28;20406;-74
2022/05/10 00:44:02;;;;;;;5.10;3.35;;;;;;;13.56;83.29;100609.34;6226891;28;20050;-73
2022/05/10 00:47:21;;;;;;;5.72;3.58;;;;;;;13.50;82.36;100602.69;6221094;28;20423;-73
2022/05/10 00:50:36;;;;;;;7.93;3.72;;;;;;;13.48;82.64;100602.78;6222499;28;20052;-73
2022/05/10 00:54:07;;;;;;;5.13;3.15;;;;;;;13.48;82.19;100596.72;6221237;28;20525;-73
2022/05/10 00:57:48;;;;;;;7.28;2.90;;;;;;;13.49;81.75;100598.41;6222304;28;20498;-74
2022/05/10 01:00:49;;;;;;;5.38;3.20;;;;;;;13.40;82.68;100594.59;6222455;28;20478;-73
2022/05/10 01:04:00;;;;;;;4.53;3.50;;;;;;;13.34;82.80;100596.75;6222299;28;20065;-73
2022/05/10 01:07:09;;;;;;;4.70;2.92;;;;;;;13.30;82.65;100596.13;6220924;28;20119;-73
2022/05/10 01:10:23;;;;;;;9.27;3.50;;;;;;;13.25;83.83;100593.75;6222231;28;20054;-73
2022/05/10 01:13:39;;;;;;;5.32;4.15;;;;;;;13.17;83.43;100588.16;6222245;28;20049;-73
2022/05/10 01:16:40;;;;;;;7.80;3.47;;;;;;;13.17;84.35;100597.81;6220765;28;20433;-73
2022/05/10 01:19:43;;;;;;;9.70;3.30;;;;;;;13.09;83.64;100591.28;6220954;28;20058;-73
2022/05/10 01:23:15;;;;;;;4.78;3.38;;;;;;;13.09;84.85;100593.91;6222055;28;20482;-73
2022/05/10 01:26:43;;;;;;;6.68;3.10;;;;;;;13.02;86.44;100592.59;6220832;28;20042;-73
2022/05/10 01:30:10;;;;;;;4.43;3.20;;;;;;;13.04;85.20;100589.88;6225428;28;20045;-72
2022/05/10 01:33:33;;;;;;;4.68;3.33;;;;;;;13.12;84.47;100590.25;6225795;28;20157;-73
2022/05/10 01:36:55;;;;;;;4.93;3.15;;;;;;;13.11;85.06;100591.16;6225565;28;20050;-73
2022/05/10 01:40:02;;;;;;;5.80;3.25;;;;;;;13.07;84.71;100594.91;6225451;28;20057;-73
2022/05/10 01:43:11;;;;;;;5.68;3.45;;;;;;;13.06;84.93;100586.22;6241783;28;20061;-73
2022/05/10 01:46:17;;;;;;;4.75;3.10;;;;;;;13.05;85.30;100587.19;6226710;28;20046;-73
2022/05/10 01:49:53;;;;;;;8.95;4.03;;;;;;;12.93;86.69;100595.81;6226610;28;20398;-74
2022/05/10 01:53:13;;;;;;;3.85;3.20;;;;;;;12.88;86.49;100582.13;6223866;28;20045;-73
2022/05/10 01:56:24;;;;;;;4.82;3.40;;;;;;;12.84;86.91;100586.72;6208809;28;20058;-73
2022/05/10 01:59:25;;;;;;;4.03;3.15;;;;;;;12.81;87.42;100588.72;6226232;28;20120;-73
2022/05/10 02:02:30;;;;;;;5.57;3.85;;;;;;;12.82;87.69;100583.34;6208773;28;20425;-76
2022/05/10 02:05:46;;;;;;;4.68;3.38;;;;;;;12.78;88.25;100587.09;6226291;28;20045;-76
2022/05/10 02:09:14;;;;;;;7.40;3.78;;;;;;;12.67;89.56;100592.16;6224870;28;20054;-76
2022/05/10 02:12:22;;;;;;;5.95;3.65;;;;;;;12.72;88.98;100592.72;6225210;28;20064;-76
2022/05/10 02:15:42;;;;;;;5.43;3.67;;;;;;;12.68;89.84;100585.97;6225009;28;20064;-76
2022/05/10 02:19:10;;;;;;;6.25;3.65;;;;;;;12.65;89.91;100583.56;6224660;28;20398;-76
2022/05/10 02:22:20;;;;;;;5.40;4.03;;;;;;;12.78;90.05;100581.03;6225688;28;20046;-77
2022/05/10 02:25:27;;;;;;;5.35;3.80;;;;;;;12.69;89.66;100566.72;6225809;28;20045;-77
2022/05/10 02:29:36;;;;;;;5.35;3.80;;;;;;;12.74;90.28;100582.16;6224378;28;20426;-76
2022/05/10 02:33:07;;;;;;;7.13;4.00;;;;;;;12.72;91.66;100579.63;6165452;28;20122;-73
2022/05/10 02:36:08;;;;;;;5.28;3.80;;;;;;;12.79;90.31;100580.09;6224514;28;20038;-73
2022/05/10 02:39:08;;;;;;;6.95;4.00;;;;;;;12.73;90.12;100577.88;6225206;28;20045;-73
2022/05/10 02:42:14;;;;;;;6.68;4.28;;;;;;;12.61;92.45;100577.66;6191734;28;20038;-73
2022/05/10 02:45:20;;;;;;;6.20;3.85;;;;;;;12.66;91.31;100572.13;6224216;28;20554;-73
2022/05/10 02:48:31;;;;;;;7.55;4.28;;;;;;;12.69;90.64;100567.56;6223984;28;20100;-73
2022/05/10 02:51:32;;;;;;;7.45;4.55;;;;;;;12.65;90.54;100562.63;6225227;28;20041;-73
2022/05/10 02:54:33;;;;;;;9.73;4.13;;;;;;;12.61;92.98;100563.75;6207595;28;20486;-73
2022/05/10 02:57:34;;;;;;;46.25;4.63;;;;;;;12.61;91.19;100569.81;6224972;28;20065;-73
2022/05/10 03:00:35;;;;;;;7.00;4.10;;;;;;;12.56;92.09;100560.56;6223955;28;20501;-73
2022/05/10 03:03:36;;;;;;;6.93;4.00;;;;;;;12.63;91.84;100565.31;6224948;28;20071;-73
2022/05/10 03:06:39;;;;;;;10.35;4.20;;;;;;;12.61;91.50;100554.09;6225273;28;20046;-73
2022/05/10 03:09:41;;;;;;;9.27;4.38;;;;;;;12.57;91.68;100549.16;6256582;28;20038;-73
2022/05/10 03:12:42;;;;;;;5.35;3.65;;;;;;;12.63;91.76;100556.63;6224663;28;20045;-72
2022/05/10 03:15:43;;;;;;;8.50;4.00;;;;;;;12.54;92.54;100552.81;6239818;28;20050;-73
2022/05/10 03:18:45;;;;;;;6.97;4.07;;;;;;;12.49;93.59;100547.00;6223240;28;20057;-73
2022/05/10 03:21:46;;;;;;;4.65;3.80;;;;;;;12.44;93.78;100562.16;6223097;28;20050;-73
2022/05/10 03:24:47;;;;;;;4.97;3.83;;;;;;;12.49;93.39;100567.94;6223277;28;20037;-73
2022/05/10 03:27:49;;;;;;;8.00;4.30;;;;;;;12.47;93.59;100560.19;6206711;28;20034;-73
2022/05/10 03:30:50;;;;;;;;;;;;;;;12.46;93.71;100565.53;6207771;28;20049;-77
2022/05/10 03:37:10;;;;;;;8.82;4.00;;;;;;;12.32;95.06;100549.81;6224318;28;20050;-77
2022/05/10 03:40:12;;;;;;;6.72;4.45;;;;;;;12.30;96.09;100558.59;6222763;28;20069;-73
2022/05/10 03:43:13;;;;;;;8.65;4.70;;;;;;;12.19;98.79;100563.63;6206382;28;20065;-73
2022/05/10 03:46:14;;;;;;;5.65;4.03;;;;;;;12.38;96.13;100565.16;6222594;28;20696;-74
2022/05/10 03:49:15;;;;;;;5.97;4.18;;;;;;;12.34;96.22;100566.28;6206353;28;20050;-73
2022/05/10 03:52:16;;;;;;;7.25;4.38;;;;;;;12.34;96.55;100567.09;6223208;28;20058;-73
2022/05/10 03:55:21;;;;;;;7.53;4.13;;;;;;;12.26;97.86;100559.69;6222469;28;20119;-73
2022/05/10 03:58:21;;;;;;;6.28;4.10;;;;;;;12.29;98.53;100561.28;6222400;28;20062;-73
2022/05/10 04:01:22;;;;;;;8.07;4.10;;;;;;;12.33;97.99;100562.78;6222365;28;20049;-73
2022/05/10 04:04:23;;;;;;;9.82;4.20;;;;;;;12.45;97.49;100563.81;6223572;28;20042;-74
2022/05/10 04:07:25;;;;;;;6.63;4.57;;;;;;;12.42;97.46;100559.63;6206129;28;20518;-73
2022/05/10 04:10:25;;;;;;;5.57;4.18;;;;;;;12.47;98.02;100569.81;6205913;28;20060;-73
2022/05/10 04:13:26;;;;;;;7.32;4.28;;;;;;;12.57;97.66;100559.63;6205580;28;20053;-72
2022/05/10 04:16:27;;;;;;;6.18;4.32;;;;;;;12.69;96.11;100574.59;6223390;28;20045;-74
2022/05/10 04:19:28;;;;;;;8.02;4.70;;;;;;;12.81;95.76;100576.44;6189522;28;20077;-74
2022/05/10 04:22:28;;;;;;;6.18;5.00;;;;;;;12.81;95.28;100575.63;6189470;28;20046;-73
2022/05/10 04:25:29;;;;;;;6.57;4.65;;;;;;;12.82;95.29;100578.13;6223161;28;20061;-73
2022/05/10 04:28:31;;;;;;;6.60;4.55;;;;;;;12.89;96.13;100573.38;6205502;28;20105;-72
2022/05/10 04:31:32;;;;;;;8.35;5.00;;;;;;;12.89;96.02;100584.66;6225258;28;20054;-72
2022/05/10 04:34:33;;;;;;;10.10;4.88;;;;;;;12.94;96.31;100571.28;6234226;28;20038;-73
2022/05/10 04:37:34;;;;;;;7.60;4.70;;;;;;;12.92;97.14;100577.56;6238122;28;20081;-74
2022/05/10 04:44:02;;;;;;;7.03;4.70;;;;;;;12.92;96.10;100588.88;6232882;28;20129;-73
2022/05/10 04:47:03;;;;;;;9.05;5.30;;;;;;;12.89;96.26;100583.84;6275100;28;20053;-73
2022/05/10 04:50:04;;;;;;;7.70;4.85;;;;;;;13.00;96.34;100578.75;6262535;28;20049;-73
2022/05/10 04:53:05;;;;;;;7.20;4.32;;;;;;;12.95;97.07;100578.22;6213263;28;20107;-73
2022/05/10 04:56:06;;;;;;;7.65;4.65;;;;;;;13.03;96.70;100581.19;6212910;28;20049;-73
2022/05/10 04:59:07;;;;;;;5.47;4.00;;;;;;;13.13;97.28;100585.84;6204936;28;20149;-73
2022/05/10 05:02:09;;;;;;;14.40;4.78;;;;;;;13.26;95.98;100581.50;6229279;28;20041;-73
2022/05/10 05:05:12;;;;;;;7.10;4.43;;;;;;;13.35;96.28;100585.34;6220394;28;20513;-73
2022/05/10 05:08:12;;;;;;;7.82;4.90;;;;;;;13.44;95.17;100588.22;6222063;28;20054;-73
2022/05/10 05:11:13;;;;;;;8.02;4.50;;;;;;;13.54;95.43;100588.47;6221013;28;20053;-73
2022/05/10 05:14:14;;;;;;;6.68;4.53;;;;;;;13.58;95.13;100589.09;6222163;28;20046;-73
2022/05/10 05:17:16;;;;;;;10.60;5.05;;;;;;;13.62;97.09;100585.34;6204766;28;20136;-73
2022/05/10 05:20:16;;;;;;;9.03;5.30;;;;;;;13.74;94.74;100584.53;6220767;28;20449;-72
2022/05/10 05:23:19;;;;;;;6.45;4.32;;;;;;;13.95;94.90;100592.78;6204573;28;20049;-73
2022/05/10 05:26:22;;;;;;;9.05;5.03;;;;;;;14.16;95.21;100592.28;6220661;28;20084;-73
2022/05/10 05:29:23;;;;;;;7.85;4.70;;;;;;;14.22;95.30;100589.25;6237187;28;20058;-73
2022/05/10 05:32:29;;;;;;;9.00;4.57;;;;;;;14.45;93.91;100582.41;6204518;28;20046;-74
2022/05/10 05:35:29;;;;;;;6.88;4.78;;;;;;;14.63;91.93;100588.22;6220716;28;20049;-74
2022/05/10 05:38:30;;;;;;;6.25;4.57;;;;;;;14.79;91.76;100594.06;6221961;28;20490;-73
2022/05/10 05:41:31;;;;;;;9.95;4.93;;;;;;;15.06;89.54;100593.06;6220543;28;20038;-74
2022/05/10 05:44:32;;;;;;;5.28;4.07;;;;;;;15.22;89.13;100591.03;6220015;28;20053;-74
2022/05/10 05:47:33;;;;;;;8.93;4.25;;;;;;;15.30;88.36;100590.50;6188027;28;20141;-73
2022/05/10 05:50:34;;;;;;;6.05;4.70;;;;;;;15.45;87.37;100599.88;6221732;28;20384;-73
2022/05/10 05:53:35;;;;;;;8.77;4.25;;;;;;;15.56;87.84;100591.19;6220484;28;20050;-74
2022/05/10 05:56:36;;;;;;;8.65;4.93;;;;;;;15.44;88.54;100584.22;6204154;28;20076;-73
2022/05/10 05:59:37;;;;;;;6.40;4.60;;;;;;;15.58;88.31;100585.84;6220261;28;20038;-73
2022/05/10 06:02:38;;;;;;;6.90;4.30;;;;;;;15.57;86.95;100581.53;6172042;28;20204;-73
2022/05/10 06:05:39;;;;;;;6.73;4.50;;;;;;;15.43;88.03;100582.53;6221568;28;20053;-73
2022/05/10 06:08:40;;;;;;;7.38;4.78;;;;;;;15.47;90.45;100586.63;6203985;28;20291;-73
2022/05/10 06:11:41;;;;;;;7.05;4.28;;;;;;;15.61;89.53;100591.72;6236648;28;20052;-74
2022/05/10 06:14:42;;;;;;;6.13;4.33;;;;;;;15.87;90.84;100586.34;6222761;28;20482;-73
2022/05/10 06:17:45;;;;;;;9.75;3.90;;;;;;;16.09;87.53;100588.19;6241185;28;20049;-73
2022/05/10 06:20:45;;;;;;;11.48;4.00;;;;;;;16.34;84.89;100586.34;6224444;28;20056;-74
2022/05/10 06:23:46;;;;;;;8.10;4.03;;;;;;;16.56;82.91;100577.63;6208226;28;20254;-73
2022/05/10 06:26:47;;;;;;;6.63;3.38;;;;;;;16.77;81.30;100577.72;6208073;28;20053;-73
2022/05/10 06:29:49;;;;;;;4.68;3.30;;;;;;;16.91;79.42;100577.50;6226175;28;20490;-73
2022/05/10 06:32:50;;;;;;;5.82;3.45;;;;;;;16.84;78.85;100571.03;6236036;28;20406;-73
2022/05/10 06:35:53;;;;;;;5.40;3.70;;;;;;;16.75;80.46;100577.00;6208167;28;20104;-73
2022/05/10 06:38:53;;;;;;;;;;;;;;;16.87;78.57;100576.06;6224892;28;20091;-73
2022/05/10 06:41:54;;;;;;;4.70;3.30;;;;;;;17.18;78.00;100576.25;6240675;28;19922;-73
2022/05/10 06:44:55;;;;;;;5.60;3.63;;;;;;;17.27;75.76;100571.06;6211907;28;20112;-73
2022/05/10 06:47:55;;;;;;;15.05;3.75;;;;;;;17.57;76.13;100574.00;6215449;28;20053;-74
2022/05/10 06:50:58;;;;;;;11.63;3.97;;;;;;;17.71;75.86;100569.25;6232971;28;20490;-73
2022/05/10 06:53:59;;;;;;;3.90;3.15;;;;;;;17.91;72.78;100570.25;6219376;28;20040;-73
2022/05/10 06:57:00;;;;;;;5.10;3.78;;;;;;;17.78;73.51;100566.09;6248172;28;20137;-73
2022/05/10 07:00:03;;;;;;;7.40;3.45;;;;;;;18.07;72.74;100568.97;6232153;28;20498;-73
2022/05/10 07:03:14;;;;;;;4.78;3.05;;;;;;;18.31;71.06;100572.16;6224086;28;20445;-73
2022/05/10 07:06:18;;;;;;;6.47;3.33;;;;;;;18.57;73.44;100576.16;6207420;28;20133;-77
2022/05/10 07:09:19;;;;;;;6.55;3.67;;;;;;;18.73;73.37;100565.94;6240214;28;20419;-77
2022/05/10 07:12:19;;;;;;;9.07;3.27;;;;;;;18.58;69.86;100575.22;6207427;28;20045;-76
2022/05/10 07:15:21;;;;;;;5.15;3.50;;;;;;;18.84;69.81;100573.81;6234418;28;20046;-77
2022/05/10 07:18:22;;;;;;;6.45;3.13;;;;;;;18.70;67.61;100567.03;6224922;28;20038;-77
2022/05/10 07:21:23;;;;;;;;;;;;;;;18.88;69.17;100572.56;6225075;28;20096;-77
2022/05/10 07:24:24;;;;;;;7.22;3.30;;;;;;;19.09;67.30;100567.19;6213560;28;19920;-76
2022/05/10 07:27:25;;;;;;;4.72;3.15;;;;;;;19.25;68.55;100571.97;6247155;28;20120;-77
2022/05/10 07:30:27;;;;;;;4.88;3.13;;;;;;;19.32;66.26;100573.06;6247728;28;20046;-77
2022/05/10 07:33:28;;;;;;;3.50;2.97;;;;;;;19.59;63.72;100578.66;6247676;28;20451;-77
2022/05/10 07:36:33;;;;;;;9.73;3.27;;;;;;;19.68;66.24;100568.09;6246339;28;20042;-78
2022/05/10 07:39:35;;;;;;;9.85;3.25;;;;;;;19.90;62.35;100574.06;6227993;28;20046;-77
2022/05/10 07:42:38;;;;;;;4.97;3.25;;;;;;;19.79;63.20;100568.91;6244014;28;20448;-77
2022/05/10 07:45:47;;;;;;;6.95;2.85;;;;;;;20.15;65.44;100562.03;6230736;28;20057;-77
2022/05/10 07:48:48;;;;;;;7.05;3.03;;;;;;;20.26;61.24;100561.88;6226080;28;20499;-77
2022/05/10 07:51:49;;;;;;;5.10;2.92;;;;;;;20.35;63.12;100562.81;6190275;28;20065;-77
2022/05/10 07:54:50;;;;;;;8.67;3.17;;;;;;;20.48;58.56;100565.97;6206281;28;20498;-77
2022/05/10 07:57:51;;;;;;;5.63;3.70;;;;;;;20.65;58.16;100571.50;6222765;28;20106;-78
2022/05/10 08:00:52;;;;;;;5.40;4.20;;;;;;;20.72;57.86;100572.63;6206066;28;20411;-74
2022/05/10 08:03:52;;;;;;;4.90;3.20;;;;;;;20.15;59.69;100571.81;6222550;28;20050;-73
2022/05/10 08:06:53;;;;;;;6.83;3.10;;;;;;;20.78;57.33;100573.84;6222339;28;20196;-73
2022/05/10 08:09:54;;;;;;;7.70;3.00;;;;;;;20.64;58.46;100580.47;6222369;28;20530;-73
2022/05/10 08:12:55;;;;;;;3.23;2.63;;;;;;;21.09;54.91;100577.03;6205702;28;20100;-74
2022/05/10 08:15:56;;;;;;;4.37;2.80;;;;;;;21.60;53.51;100570.25;6205992;28;20037;-73
2022/05/10 08:18:58;;;;;;;3.50;2.73;;;;;;;21.46;53.95;100574.28;6223413;28;20494;-73
2022/05/10 08:21:59;;;;;;;6.45;3.20;;;;;;;22.02;51.94;100574.06;6224799;28;20337;-74
2022/05/10 08:25:00;;;;;;;7.53;2.80;;;;;;;21.26;53.36;100572.72;6232519;28;20050;-74
2022/05/10 08:28:02;;;;;;;5.47;2.60;;;;;;;21.66;52.49;100577.63;6275350;28;20056;-74
2022/05/10 08:31:06;;;;;;;4.72;2.55;;;;;;;21.76;50.37;100569.53;6235578;28;20084;-74
2022/05/10 08:34:08;;;;;;;6.93;2.80;;;;;;;21.89;51.65;100569.16;6221905;28;20068;-73
2022/05/10 08:37:09;;;;;;;;;;;;;;;21.92;50.91;100566.19;6223424;28;20041;-74
2022/05/10 08:40:29;;;;;;;5.43;2.45;;;;;;;22.52;51.68;100570.72;6222606;28;20004;-78
2022/05/10 08:43:52;;;;;;;7.60;2.63;;;;;;;22.26;51.58;100570.78;6222918;28;20045;-78
2022/05/10 08:47:06;;;;;;;7.65;2.63;;;;;;;22.12;50.01;100566.84;6221092;28;20395;-78
2022/05/10 08:50:11;;;;;;;4.93;2.67;;;;;;;23.01;48.60;100570.94;6221638;28;20073;-78
2022/05/10 08:53:14;;;;;;;6.78;2.30;;;;;;;23.41;43.64;100566.72;6221564;28;20046;-78
2022/05/10 08:56:39;;;;;;;6.38;2.78;;;;;;;23.09;44.16;100570.16;6221512;28;20054;-74
2022/05/10 08:59:43;;;;;;;4.72;2.75;;;;;;;22.94;46.54;100569.91;6241339;28;20053;-74
2022/05/10 09:02:51;;;;;;;3.75;2.45;;;;;;;23.01;44.71;100562.97;6245736;28;20449;-74
2022/05/10 09:06:09;;;;;;;6.63;2.67;;;;;;;23.11;45.78;100570.81;6247403;28;20076;-74
2022/05/10 09:09:29;;;;;;;4.57;2.30;;;;;;;23.17;43.17;100556.03;6246884;28;20405;-74
2022/05/10 09:12:41;;;;;;;4.05;2.50;;;;;;;23.06;43.50;100563.34;6246771;28;20059;-74
2022/05/10 09:15:57;;;;;;;4.40;2.40;;;;;;;22.60;45.33;100568.13;6246765;28;20045;-74
2022/05/10 09:18:58;;;;;;;4.78;2.30;;;;;;;21.89;46.91;100566.50;6278889;28;20485;-74
2022/05/10 09:22:03;;;;;;;3.88;2.55;;;;;;;22.19;46.67;100562.53;6246730;28;20042;-74
2022/05/10 09:25:17;;;;;;;3.15;2.22;;;;;;;22.86;42.38;100557.41;6245482;28;20498;-73
2022/05/10 09:28:34;;;;;;;3.30;2.35;;;;;;;22.96;35.98;100564.41;6246635;28;20478;-74
2022/05/10 09:35:07;;;;;;;10.43;2.15;;;;;;;21.93;38.43;100562.56;6222515;28;20092;-74
2022/05/10 09:38:10;;;;;;;3.47;2.30;;;;;;;22.19;39.51;100559.88;6220882;28;20111;-74
2022/05/10 09:41:32;;;;;;;3.47;2.20;;;;;;;22.17;38.90;100564.53;6204566;28;20092;-74
2022/05/10 09:44:33;;;;;;;4.40;2.20;;;;;;;21.94;38.59;100565.03;6220730;28;20084;-74
2022/05/10 09:47:34;;;;;;;6.03;2.17;;;;;;;22.10;37.93;100560.84;6204555;28;20069;-74
2022/05/10 09:50:41;;;;;;;;;;;;;;;22.86;37.93;100557.41;6225249;28;20487;-74
2022/05/10 09:53:42;;;;;;;3.13;1.98;;;;;;;23.48;37.46;100546.41;6226633;28;20294;-74
2022/05/10 09:56:44;;;;;;;3.80;2.05;;;;;;;23.78;35.36;100551.25;6209469;28;20505;-77
2022/05/10 09:59:47;;;;;;;3.40;1.95;;;;;;;23.15;35.62;100545.53;6225425;28;20042;-78
2022/05/10 10:02:56;;;;;;;6.72;2.05;;;;;;;22.56;37.25;100553.47;6225395;28;20408;-78
2022/05/10 10:06:12;;;;;;;4.00;2.17;;;;;;;22.56;36.92;100545.50;6226496;28;20049;-78
2022/05/10 10:09:30;;;;;;;5.32;2.15;;;;;;;22.06;36.32;100538.22;6225529;28;20042;-78
2022/05/10 10:12:42;;;;;;;4.82;2.50;;;;;;;22.36;37.46;100547.53;6225237;28;20056;-77
2022/05/10 10:15:43;;;;;;;3.92;2.13;;;;;;;22.37;36.81;100549.22;6224917;28;20463;-77
2022/05/10 10:18:48;;;;;;;8.48;2.30;;;;;;;22.63;36.61;100538.56;6258054;28;20056;-77
2022/05/10 10:22:04;;;;;;;3.83;1.88;;;;;;;23.09;34.85;100538.22;6208704;28;20073;-78
2022/05/10 10:25:26;;;;;;;3.35;2.00;;;;;;;22.67;35.91;100533.72;6224782;28;20054;-78
2022/05/10 10:28:34;;;;;;;3.78;2.03;;;;;;;22.86;35.90;100540.63;6224738;28;20091;-78
2022/05/10 10:31:41;;;;;;;5.57;2.22;;;;;;;23.29;35.70;100536.09;6225946;28;20409;-78
2022/05/10 10:34:53;;;;;;;6.82;2.03;;;;;;;22.63;36.21;100538.56;6225918;28;20042;-78
2022/05/10 10:37:55;;;;;;;;;;;;;;;23.22;36.67;100532.41;6225086;28;20038;-74
2022/05/10 10:41:10;;;;;;;4.05;2.13;;;;;;;24.00;36.58;100512.44;6231797;28;19921;-78
2022/05/10 10:44:24;;;;;;;11.52;2.60;;;;;;;23.99;35.26;100522.28;6259830;28;20053;-74
2022/05/10 10:47:34;;;;;;;10.40;2.30;;;;;;;24.09;36.09;100519.41;6207835;28;20050;-74
2022/05/10 10:50:35;;;;;;;4.70;2.55;;;;;;;23.78;36.81;100514.78;6224153;28;20074;-74
2022/05/10 10:53:39;;;;;;;3.60;2.08;;;;;;;24.32;36.14;100508.84;6207813;28;20233;-74
2022/05/10 10:56:59;;;;;;;6.60;2.42;;;;;;;24.47;34.90;100512.44;6224144;28;20042;-75
2022/05/10 11:00:11;;;;;;;5.50;2.25;;;;;;;23.89;35.18;100497.66;6223740;28;20042;-74
2022/05/10 11:03:27;;;;;;;3.83;2.08;;;;;;;24.03;34.79;100491.63;6244031;28;20050;-74
2022/05/10 11:06:34;;;;;;;4.60;2.10;;;;;;;24.63;35.65;100498.25;6226455;28;20136;-75
2022/05/10 11:09:47;;;;;;;4.72;2.35;;;;;;;24.70;36.57;100491.19;6223741;28;20057;-74
2022/05/10 11:12:56;;;;;;;4.82;2.38;;;;;;;24.89;34.66;100489.09;6224680;28;20049;-74
2022/05/10 11:16:15;;;;;;;4.45;2.13;;;;;;;23.80;33.14;100485.31;6224900;28;20038;-78
2022/05/10 11:19:43;;;;;;;4.13;2.05;;;;;;;23.62;34.47;100481.00;6223584;28;20046;-78
2022/05/10 11:23:14;;;;;;;4.65;2.20;;;;;;;23.41;35.11;100486.00;6223402;28;20074;-78
2022/05/10 11:26:36;;;;;;;4.32;2.25;;;;;;;23.76;35.13;100476.78;6280430;28;20053;-78
2022/05/10 11:30:00;;;;;;;8.20;2.38;;;;;;;24.37;35.47;100474.50;6248027;28;20049;-78
2022/05/10 11:33:09;;;;;;;4.22;2.63;;;;;;;23.88;35.85;100470.13;6248840;28;20504;-78
2022/05/10 11:36:23;;;;;;;7.22;2.58;;;;;;;24.99;36.69;100456.84;6249251;28;20041;-78
2022/05/10 11:39:27;;;;;;;7.82;2.10;;;;;;;24.89;34.62;100463.25;6247620;28;20057;-79
2022/05/10 11:42:35;;;;;;;4.63;2.25;;;;;;;25.03;32.90;100463.47;6248849;28;20042;-79
2022/05/10 11:45:58;;;;;;;8.05;2.38;;;;;;;24.36;33.64;100459.50;6246774;28;20053;-78
2022/05/10 11:49:26;;;;;;;6.80;2.40;;;;;;;24.32;33.72;100451.03;6239463;28;20065;-78
2022/05/10 11:53:06;;;;;;;4.28;2.40;;;;;;;24.52;33.78;100453.28;6224136;28;20052;-78
2022/05/10 11:56:08;;;;;;;3.47;2.15;;;;;;;25.52;37.68;100442.56;6222654;28;20422;-78
2022/05/10 11:59:21;;;;;;;7.45;2.30;;;;;;;24.61;33.73;100441.56;6222658;28;20049;-78
2022/05/10 12:02:28;;;;;;;6.00;2.20;;;;;;;24.38;33.96;100428.16;6206332;28;20081;-78
2022/05/10 12:05:34;;;;;;;5.45;2.40;;;;;;;24.46;33.88;100433.47;6224062;28;20117;-78
2022/05/10 12:08:35;;;;;;;5.00;2.33;;;;;;;23.98;35.29;100432.66;6222613;28;20124;-78
2022/05/10 12:11:38;;;;;;;4.70;2.03;;;;;;;23.92;35.27;100428.00;6205599;28;20045;-78
2022/05/10 12:21:38;;;;;;;5.88;2.13;;;;;;;24.66;35.80;100414.34;6237011;28;20053;-78
2022/05/10 12:24:44;;;;;;;6.30;2.47;;;;;;;24.47;32.10;100404.94;6242685;28;20041;-78
2022/05/10 12:27:58;;;;;;;2.83;2.05;;;;;;;24.99;32.33;100401.59;6238455;28;20042;-75
2022/05/10 12:30:58;;;;;;;6.95;2.08;;;;;;;24.92;32.65;100408.69;6246518;28;20053;-75
2022/05/10 12:34:08;;;;;;;4.93;2.08;;;;;;;24.81;33.15;100388.59;6230099;28;20077;-75
2022/05/10 12:37:30;;;;;;;5.30;2.45;;;;;;;25.32;33.24;100396.00;6247762;28;20449;-74
2022/05/10 12:40:34;;;;;;;11.25;2.30;;;;;;;24.77;34.13;100384.63;6243998;28;20474;-74
2022/05/10 12:44:00;;;;;;;4.82;2.20;;;;;;;24.81;32.92;100375.25;6247788;28;20064;-75
2022/05/10 12:47:24;;;;;;;6.25;2.38;;;;;;;24.60;33.10;100381.22;6223944;28;20053;-74
2022/05/10 12:50:35;;;;;;;4.45;2.05;;;;;;;24.65;32.68;100364.69;6221377;28;20084;-75
2022/05/10 12:53:46;;;;;;;8.70;2.10;;;;;;;24.73;32.24;100356.63;6237809;28;20058;-74
2022/05/10 12:57:10;;;;;;;6.18;2.20;;;;;;;24.08;32.47;100348.00;6230767;28;20060;-74
2022/05/10 13:00:16;;;;;;;4.63;2.10;;;;;;;23.57;33.98;100347.50;6251071;28;20046;-74
2022/05/10 13:03:23;;;;;;;4.88;2.22;;;;;;;24.06;32.49;100339.34;6227538;28;20048;-75
2022/05/10 13:06:47;;;;;;;7.88;2.25;;;;;;;23.81;31.66;100338.63;6266889;28;20059;-75
2022/05/10 13:10:01;;;;;;;8.45;2.30;;;;;;;23.77;31.35;100334.66;6244586;28;20080;-74
2022/05/10 13:13:12;;;;;;;7.68;1.95;;;;;;;24.16;31.30;100325.78;6233251;28;20117;-74
2022/05/10 13:16:20;;;;;;;7.32;1.95;;;;;;;23.91;27.97;100328.59;6221612;28;20034;-74
2022/05/10 13:19:25;;;;;;;8.18;2.00;;;;;;;23.42;29.53;100326.06;6220971;28;20074;-74
2022/05/10 13:22:28;;;;;;;4.15;2.10;;;;;;;23.58;29.72;100327.88;6226655;28;20057;-74
2022/05/10 13:25:35;;;;;;;7.78;2.17;;;;;;;23.46;29.90;100311.41;6236321;28;20038;-74
2022/05/10 13:28:54;;;;;;;7.97;2.03;;;;;;;23.81;29.95;100308.50;6238463;28;20057;-74
2022/05/10 13:31:55;;;;;;;2.95;1.80;;;;;;;23.68;29.72;100307.19;6234598;28;20064;-74
2022/05/10 13:35:10;;;;;;;5.50;1.98;;;;;;;23.41;30.84;100302.28;6267229;28;20137;-74
2022/05/10 13:38:20;;;;;;;5.88;2.05;;;;;;;23.29;31.93;100302.66;6224833;28;20581;-74
2022/05/10 13:41:30;;;;;;;5.15;2.10;;;;;;;23.60;31.68;100298.41;6226274;28;20046;-75
2022/05/10 13:44:40;;;;;;;5.13;1.58;;;;;;;23.47;29.89;100286.47;6238195;28;20120;-74
2022/05/10 13:47:42;;;;;;;6.90;1.90;;;;;;;23.71;30.36;100287.34;6266824;28;20072;-74
2022/05/10 13:50:45;;;;;;;2.13;1.77;;;;;;;23.58;31.00;100290.59;6251249;28;20046;-74
2022/05/10 13:53:58;;;;;;;5.57;1.85;;;;;;;23.60;30.11;100280.59;6250121;28;20042;-74
2022/05/10 13:57:18;;;;;;;2.88;1.65;;;;;;;23.61;29.41;100276.06;6278661;28;20137;-74
2022/05/10 14:00:24;;;;;;;4.18;1.75;;;;;;;23.41;29.76;100281.81;6249906;28;20041;-74
2022/05/10 14:03:26;;;;;;;3.03;1.95;;;;;;;23.47;31.37;100286.47;6230585;28;20048;-73
2022/05/10 14:06:29;;;;;;;;;;;;;;;23.12;30.99;100285.91;6228094;28;20061;-74
2022/05/10 14:09:40;;;;;;;7.25;1.70;;;;;;;23.05;29.99;100282.22;6245237;28;20109;-74
2022/05/10 14:13:02;;;;;;;9.13;2.20;;;;;;;23.24;29.47;100281.03;6249644;28;20060;-74
2022/05/10 14:16:03;;;;;;;;;;;;;;;23.29;29.12;100280.53;6248885;28;20042;-74
2022/05/10 14:19:16;;;;;;;3.05;1.88;;;;;;;23.00;28.66;100270.41;6225022;28;19932;-78
2022/05/10 14:22:23;;;;;;;6.38;2.17;;;;;;;23.20;30.67;100261.06;6237480;28;20490;-74
2022/05/10 14:25:26;;;;;;;5.43;1.80;;;;;;;23.06;30.18;100267.09;6250796;28;20058;-74
2022/05/10 14:28:38;;;;;;;3.35;1.60;;;;;;;23.01;30.20;100264.94;6263436;28;20088;-74
2022/05/10 14:31:41;;;;;;;6.35;1.90;;;;;;;23.03;30.36;100270.94;6266597;28;20053;-74
2022/05/10 14:34:56;;;;;;;2.30;1.70;;;;;;;23.04;29.55;100263.78;6225112;28;20567;-74
2022/05/10 14:38:00;;;;;;;6.45;1.77;;;;;;;23.23;30.81;100262.59;6224403;28;20177;-74
2022/05/10 14:41:01;;;;;;;3.05;1.85;;;;;;;23.09;31.05;100258.78;6234986;28;20045;-74
2022/05/10 14:44:18;;;;;;;5.68;1.85;;;;;;;;;;6249037;28;20161;-74
2022/05/10 14:47:25;;;;;;;3.75;1.90;;;;;;;22.97;30.78;100254.78;6249951;28;20065;-75
2022/05/10 14:50:51;;;;;;;3.25;1.45;;;;;;;22.85;28.78;100251.63;6279349;28;20058;-74